sensor_id;sensor_type;location;lat;lon;timestamp;pressure;altitude;pressure_sealevel;temperature;humidity
58245;BME280;44550;43.864;25.986;2024-03-02T00:04:02;100873.88;;;7.56;100.00
58245;BME280;44550;43.864;25.986;2024-03-02T00:08:27;100866.94;;;7.57;100.00
58245;BME280;44550;43.864;25.986;2024-03-02T00:13:02;100863.25;;;7.45;100.00
58245;BME280;44550;43.864;25.986;2024-03-02T00:18:42;100873.81;;;7.53;100.00
58245;BME280;44550;43.864;25.986;2024-03-02T00:22:55;100877.22;;;7.49;100.00
58245;BME280;44550;43.864;25.986;2024-03-02T00:27:42;100887.63;;;7.50;100.00
58245;BME280;44550;43.864;25.986;2024-03-02T00:32:17;100880.47;;;7.39;100.00
58245;BME280;44550;43.864;25.986;2024-03-02T00:36:56;100887.19;;;7.29;100.00
58245;BME280;44550;43.864;25.986;2024-03-02T00:41:25;100883.69;;;7.28;100.00
58245;BME280;44550;43.864;25.986;2024-03-02T00:45:51;100831.91;;;7.00;100.00
58245;BME280;44550;43.864;25.986;2024-03-02T00:50:02;100864.47;;;7.22;100.00
58245;BME280;44550;43.864;25.986;2024-03-02T00:55:18;100866.09;;;7.18;100.00
58245;BME280;44550;43.864;25.986;2024-03-02T00:59:50;100813.53;;;6.92;100.00
58245;BME280;44550;43.864;25.986;2024-03-02T01:04:06;100806.94;;;7.08;100.00
58245;BME280;44550;43.864;25.986;2024-03-02T01:08:39;100836.59;;;7.16;100.00
58245;BME280;44550;43.864;25.986;2024-03-02T01:17:23;100826.63;;;6.97;100.00
58245;BME280;44550;43.864;25.986;2024-03-02T01:21:45;100841.44;;;6.99;100.00
58245;BME280;44550;43.864;25.986;2024-03-02T01:26:26;100816.16;;;6.92;100.00
58245;BME280;44550;43.864;25.986;2024-03-02T01:30:51;100829.19;;;6.95;100.00
58245;BME280;44550;43.864;25.986;2024-03-02T01:35:11;100819.69;;;6.96;100.00
58245;BME280;44550;43.864;25.986;2024-03-02T01:39:30;100828.06;;;6.82;100.00
58245;BME280;44550;43.864;25.986;2024-03-02T01:44:00;100834.22;;;6.88;100.00
58245;BME280;44550;43.864;25.986;2024-03-02T01:48:24;100822.16;;;6.90;100.00
58245;BME280;44550;43.864;25.986;2024-03-02T01:52:52;100793.34;;;6.80;100.00
58245;BME280;44550;43.864;25.986;2024-03-02T01:57:29;100804.66;;;6.82;100.00
58245;BME280;44550;43.864;25.986;2024-03-02T02:01:38;100808.13;;;6.83;100.00
58245;BME280;44550;43.864;25.986;2024-03-02T02:06:09;100783.59;;;6.72;100.00
58245;BME280;44550;43.864;25.986;2024-03-02T02:10:22;100808.94;;;6.82;100.00
58245;BME280;44550;43.864;25.986;2024-03-02T02:14:59;100796.50;;;6.67;100.00
58245;BME280;44550;43.864;25.986;2024-03-02T02:19:05;100798.22;;;6.67;100.00
58245;BME280;44550;43.864;25.986;2024-03-02T02:23:36;100780.34;;;6.44;100.00
58245;BME280;44550;43.864;25.986;2024-03-02T02:32:58;100795.63;;;6.67;100.00
58245;BME280;44550;43.864;25.986;2024-03-02T02:37:26;100777.53;;;6.35;100.00
58245;BME280;44550;43.864;25.986;2024-03-02T02:42:06;100788.19;;;6.46;100.00
58245;BME280;44550;43.864;25.986;2024-03-02T02:46:26;100732.00;;;6.13;100.00
58245;BME280;44550;43.864;25.986;2024-03-02T02:51:27;100791.75;;;6.49;100.00
58245;BME280;44550;43.864;25.986;2024-03-02T02:55:42;100782.41;;;6.57;100.00
58245;BME280;44550;43.864;25.986;2024-03-02T03:04:40;100728.72;;;6.20;100.00
58245;BME280;44550;43.864;25.986;2024-03-02T03:08:51;100793.75;;;6.61;100.00
58245;BME280;44550;43.864;25.986;2024-03-02T03:13:15;100812.44;;;6.82;100.00
58245;BME280;44550;43.864;25.986;2024-03-02T03:22:21;100773.31;;;6.76;100.00
58245;BME280;44550;43.864;25.986;2024-03-02T03:26:36;100809.16;;;6.91;100.00
58245;BME280;44550;43.864;25.986;2024-03-02T03:31:17;100809.28;;;6.96;100.00
58245;BME280;44550;43.864;25.986;2024-03-02T03:35:47;100808.38;;;6.95;100.00
58245;BME280;44550;43.864;25.986;2024-03-02T03:45:51;100797.25;;;6.99;100.00
58245;BME280;44550;43.864;25.986;2024-03-02T03:50:03;100796.53;;;7.06;100.00
58245;BME280;44550;43.864;25.986;2024-03-02T03:54:20;100805.19;;;7.07;100.00
58245;BME280;44550;43.864;25.986;2024-03-02T03:58:37;100805.41;;;7.16;100.00
58245;BME280;44550;43.864;25.986;2024-03-02T04:02:58;100810.69;;;7.21;100.00
58245;BME280;44550;43.864;25.986;2024-03-02T04:07:15;100813.34;;;7.24;100.00
58245;BME280;44550;43.864;25.986;2024-03-02T04:11:46;100812.69;;;7.33;100.00
58245;BME280;44550;43.864;25.986;2024-03-02T04:21:19;100820.72;;;7.43;100.00
58245;BME280;44550;43.864;25.986;2024-03-02T04:25:59;100816.38;;;7.42;100.00
58245;BME280;44550;43.864;25.986;2024-03-02T04:30:32;100806.72;;;7.38;100.00
58245;BME280;44550;43.864;25.986;2024-03-02T04:35:17;100817.09;;;7.37;100.00
58245;BME280;44550;43.864;25.986;2024-03-02T04:39:36;100809.09;;;7.27;100.00
58245;BME280;44550;43.864;25.986;2024-03-02T04:44:14;100835.38;;;7.40;100.00
58245;BME280;44550;43.864;25.986;2024-03-02T04:52:56;100831.19;;;7.46;100.00
58245;BME280;44550;43.864;25.986;2024-03-02T04:57:26;100837.31;;;7.48;100.00
58245;BME280;44550;43.864;25.986;2024-03-02T05:01:45;100831.25;;;7.49;100.00
58245;BME280;44550;43.864;25.986;2024-03-02T05:06:10;100833.19;;;7.60;100.00
58245;BME280;44550;43.864;25.986;2024-03-02T05:10:31;100838.31;;;7.57;100.00
58245;BME280;44550;43.864;25.986;2024-03-02T05:14:56;100790.81;;;7.24;100.00
58245;BME280;44550;43.864;25.986;2024-03-02T05:19:13;100832.38;;;7.62;100.00
58245;BME280;44550;43.864;25.986;2024-03-02T05:33:03;100842.84;;;7.65;100.00
58245;BME280;44550;43.864;25.986;2024-03-02T05:37:32;100832.13;;;7.50;100.00
58245;BME280;44550;43.864;25.986;2024-03-02T05:42:21;100849.69;;;7.60;100.00
58245;BME280;44550;43.864;25.986;2024-03-02T05:46:36;100856.75;;;7.67;100.00
58245;BME280;44550;43.864;25.986;2024-03-02T05:51:03;100857.63;;;7.66;100.00
58245;BME280;44550;43.864;25.986;2024-03-02T05:55:35;100860.22;;;7.68;100.00
58245;BME280;44550;43.864;25.986;2024-03-02T05:59:57;100863.81;;;7.73;100.00
58245;BME280;44550;43.864;25.986;2024-03-02T06:04:27;100816.63;;;7.56;100.00
58245;BME280;44550;43.864;25.986;2024-03-02T06:08:53;100852.00;;;7.89;100.00
58245;BME280;44550;43.864;25.986;2024-03-02T06:13:00;100854.53;;;7.86;100.00
58245;BME280;44550;43.864;25.986;2024-03-02T06:27:01;100858.56;;;7.71;100.00
58245;BME280;44550;43.864;25.986;2024-03-02T06:31:50;100855.06;;;7.69;100.00
58245;BME280;44550;43.864;25.986;2024-03-02T06:36:09;100856.97;;;7.78;100.00
58245;BME280;44550;43.864;25.986;2024-03-02T06:40:44;100858.03;;;7.88;100.00
58245;BME280;44550;43.864;25.986;2024-03-02T06:45:22;100839.78;;;7.86;100.00
58245;BME280;44550;43.864;25.986;2024-03-02T06:59:48;100857.63;;;7.68;100.00
58245;BME280;44550;43.864;25.986;2024-03-02T07:04:30;100855.75;;;7.59;100.00
58245;BME280;44550;43.864;25.986;2024-03-02T07:09:33;100871.00;;;7.85;100.00
58245;BME280;44550;43.864;25.986;2024-03-02T07:20:12;100874.31;;;7.77;100.00
58245;BME280;44550;43.864;25.986;2024-03-02T07:39:09;100853.63;;;8.31;100.00
58245;BME280;44550;43.864;25.986;2024-03-02T07:43:48;100848.53;;;8.37;100.00
58245;BME280;44550;43.864;25.986;2024-03-02T07:48:22;100818.72;;;8.21;100.00
58245;BME280;44550;43.864;25.986;2024-03-02T07:53:08;100844.19;;;8.36;100.00
58245;BME280;44550;43.864;25.986;2024-03-02T07:57:46;100807.63;;;8.31;100.00
58245;BME280;44550;43.864;25.986;2024-03-02T08:02:35;100835.72;;;8.47;100.00
58245;BME280;44550;43.864;25.986;2024-03-02T08:07:03;100829.72;;;8.52;100.00
58245;BME280;44550;43.864;25.986;2024-03-02T08:11:26;100837.88;;;8.72;100.00
58245;BME280;44550;43.864;25.986;2024-03-02T08:21:00;100844.09;;;8.83;100.00
58245;BME280;44550;43.864;25.986;2024-03-02T08:25:37;100849.56;;;9.00;100.00
58245;BME280;44550;43.864;25.986;2024-03-02T08:30:04;100839.28;;;9.07;100.00
58245;BME280;44550;43.864;25.986;2024-03-02T08:34:39;100819.34;;;9.11;100.00
58245;BME280;44550;43.864;25.986;2024-03-02T08:39:37;100827.94;;;9.07;100.00
58245;BME280;44550;43.864;25.986;2024-03-02T08:44:16;100851.75;;;9.30;100.00
58245;BME280;44550;43.864;25.986;2024-03-02T08:49:08;100861.59;;;9.49;100.00
58245;BME280;44550;43.864;25.986;2024-03-02T08:54:09;100836.50;;;9.60;100.00
58245;BME280;44550;43.864;25.986;2024-03-02T09:08:46;100825.56;;;9.95;100.00
58245;BME280;44550;43.864;25.986;2024-03-02T09:13:15;100820.31;;;9.91;100.00
58245;BME280;44550;43.864;25.986;2024-03-02T09:18:11;100806.38;;;9.90;100.00
58245;BME280;44550;43.864;25.986;2024-03-02T09:22:33;100810.09;;;10.15;100.00
58245;BME280;44550;43.864;25.986;2024-03-02T09:27:11;100786.66;;;10.21;100.00
58245;BME280;44550;43.864;25.986;2024-03-02T09:31:27;100767.69;;;10.42;100.00
58245;BME280;44550;43.864;25.986;2024-03-02T09:35:34;100828.81;;;10.58;100.00
58245;BME280;44550;43.864;25.986;2024-03-02T09:40:08;100783.47;;;10.54;100.00
58245;BME280;44550;43.864;25.986;2024-03-02T09:49:14;100839.56;;;10.98;100.00
58245;BME280;44550;43.864;25.986;2024-03-02T09:53:34;100849.09;;;10.88;100.00
58245;BME280;44550;43.864;25.986;2024-03-02T09:57:54;100819.31;;;10.68;100.00
58245;BME280;44550;43.864;25.986;2024-03-02T10:02:30;100842.13;;;10.89;100.00
58245;BME280;44550;43.864;25.986;2024-03-02T10:07:10;100837.78;;;10.86;100.00
58245;BME280;44550;43.864;25.986;2024-03-02T10:12:16;100844.03;;;11.10;100.00
58245;BME280;44550;43.864;25.986;2024-03-02T10:16:39;100850.28;;;11.36;100.00
58245;BME280;44550;43.864;25.986;2024-03-02T10:21:31;100837.22;;;11.39;100.00
58245;BME280;44550;43.864;25.986;2024-03-02T10:26:05;100833.69;;;11.39;100.00
58245;BME280;44550;43.864;25.986;2024-03-02T10:30:23;100796.16;;;11.35;100.00
58245;BME280;44550;43.864;25.986;2024-03-02T10:34:46;100845.06;;;11.41;100.00
58245;BME280;44550;43.864;25.986;2024-03-02T10:39:36;100831.00;;;11.25;100.00
58245;BME280;44550;43.864;25.986;2024-03-02T10:43:58;100829.34;;;11.38;100.00
58245;BME280;44550;43.864;25.986;2024-03-02T10:48:40;100825.94;;;11.54;100.00
58245;BME280;44550;43.864;25.986;2024-03-02T10:53:26;100785.69;;;11.35;100.00
58245;BME280;44550;43.864;25.986;2024-03-02T10:57:50;100825.91;;;11.51;100.00
58245;BME280;44550;43.864;25.986;2024-03-02T11:02:23;100819.84;;;11.60;100.00
58245;BME280;44550;43.864;25.986;2024-03-02T11:06:48;100815.47;;;11.65;100.00
58245;BME280;44550;43.864;25.986;2024-03-02T11:11:11;100795.44;;;11.76;100.00
58245;BME280;44550;43.864;25.986;2024-03-02T11:15:32;100809.53;;;12.10;100.00
58245;BME280;44550;43.864;25.986;2024-03-02T11:19:41;100802.44;;;11.79;100.00
58245;BME280;44550;43.864;25.986;2024-03-02T11:23:53;100807.75;;;12.02;100.00
58245;BME280;44550;43.864;25.986;2024-03-02T11:28:16;100800.78;;;12.04;100.00
58245;BME280;44550;43.864;25.986;2024-03-02T11:33:02;100776.25;;;11.80;100.00
58245;BME280;44550;43.864;25.986;2024-03-02T11:37:36;100792.81;;;11.71;100.00
58245;BME280;44550;43.864;25.986;2024-03-02T11:41:53;100761.31;;;11.48;100.00
58245;BME280;44550;43.864;25.986;2024-03-02T11:46:00;100801.53;;;11.64;100.00
58245;BME280;44550;43.864;25.986;2024-03-02T11:50:35;100792.69;;;11.36;100.00
58245;BME280;44550;43.864;25.986;2024-03-02T11:54:50;100785.75;;;11.46;100.00
58245;BME280;44550;43.864;25.986;2024-03-02T11:59:22;100785.78;;;11.58;100.00
58245;BME280;44550;43.864;25.986;2024-03-02T12:03:27;100770.94;;;11.62;100.00
58245;BME280;44550;43.864;25.986;2024-03-02T12:07:59;100755.16;;;11.42;100.00
58245;BME280;44550;43.864;25.986;2024-03-02T12:12:38;100767.34;;;11.27;100.00
58245;BME280;44550;43.864;25.986;2024-03-02T12:16:59;100747.19;;;11.11;100.00
58245;BME280;44550;43.864;25.986;2024-03-02T12:21:28;100777.81;;;11.31;100.00
58245;BME280;44550;43.864;25.986;2024-03-02T12:25:56;100770.75;;;11.16;100.00
58245;BME280;44550;43.864;25.986;2024-03-02T12:35:59;100761.28;;;11.39;100.00
58245;BME280;44550;43.864;25.986;2024-03-02T12:40:59;100764.81;;;11.58;100.00
58245;BME280;44550;43.864;25.986;2024-03-02T12:51:08;100763.13;;;11.66;100.00
58245;BME280;44550;43.864;25.986;2024-03-02T12:56:15;100762.22;;;11.64;100.00
58245;BME280;44550;43.864;25.986;2024-03-02T13:00:45;100763.13;;;11.77;100.00
58245;BME280;44550;43.864;25.986;2024-03-02T13:05:09;100695.88;;;11.67;100.00
58245;BME280;44550;43.864;25.986;2024-03-02T13:09:18;100755.34;;;12.14;100.00
58245;BME280;44550;43.864;25.986;2024-03-02T13:18:39;100764.97;;;12.16;100.00
58245;BME280;44550;43.864;25.986;2024-03-02T13:23:03;100759.75;;;12.19;100.00
58245;BME280;44550;43.864;25.986;2024-03-02T13:27:38;100733.50;;;12.04;100.00
58245;BME280;44550;43.864;25.986;2024-03-02T13:31:45;100772.84;;;12.18;100.00
58245;BME280;44550;43.864;25.986;2024-03-02T13:35:56;100762.34;;;12.07;100.00
58245;BME280;44550;43.864;25.986;2024-03-02T13:40:23;100761.47;;;12.01;100.00
58245;BME280;44550;43.864;25.986;2024-03-02T13:44:32;100743.09;;;11.94;100.00
58245;BME280;44550;43.864;25.986;2024-03-02T13:48:38;100767.59;;;12.18;100.00
58245;BME280;44550;43.864;25.986;2024-03-02T13:53:00;100777.22;;;12.31;99.75
58245;BME280;44550;43.864;25.986;2024-03-02T13:57:09;100722.16;;;12.01;98.72
58245;BME280;44550;43.864;25.986;2024-03-02T14:01:39;100747.50;;;12.12;97.30
58245;BME280;44550;43.864;25.986;2024-03-02T14:06:41;100722.16;;;12.01;96.18
58245;BME280;44550;43.864;25.986;2024-03-02T14:11:26;100755.38;;;12.32;93.81
58245;BME280;44550;43.864;25.986;2024-03-02T14:15:43;100769.34;;;12.46;93.25
58245;BME280;44550;43.864;25.986;2024-03-02T14:20:23;100781.59;;;12.52;93.24
58245;BME280;44550;43.864;25.986;2024-03-02T14:24:41;100783.34;;;12.49;93.64
58245;BME280;44550;43.864;25.986;2024-03-02T14:29:33;100748.34;;;12.48;93.75
58245;BME280;44550;43.864;25.986;2024-03-02T14:34:14;100735.28;;;12.25;94.88
58245;BME280;44550;43.864;25.986;2024-03-02T14:38:40;100751.88;;;12.27;96.06
58245;BME280;44550;43.864;25.986;2024-03-02T14:43:08;100778.97;;;12.37;94.85
58245;BME280;44550;43.864;25.986;2024-03-02T14:48:43;100780.72;;;12.36;95.23
58245;BME280;44550;43.864;25.986;2024-03-02T14:53:16;100771.97;;;12.33;95.01
58245;BME280;44550;43.864;25.986;2024-03-02T14:57:40;100782.47;;;12.42;94.59
58245;BME280;44550;43.864;25.986;2024-03-02T15:02:12;100776.38;;;12.38;93.90
58245;BME280;44550;43.864;25.986;2024-03-02T15:06:35;100781.59;;;12.34;92.86
58245;BME280;44550;43.864;25.986;2024-03-02T15:11:06;100763.25;;;12.29;92.91
58245;BME280;44550;43.864;25.986;2024-03-02T15:20:43;100782.47;;;12.39;89.52
58245;BME280;44550;43.864;25.986;2024-03-02T15:24:58;100767.59;;;12.24;88.02
58245;BME280;44550;43.864;25.986;2024-03-02T15:29:13;100783.34;;;12.22;87.37
58245;BME280;44550;43.864;25.986;2024-03-02T15:33:51;100805.19;;;12.35;85.31
58245;BME280;44550;43.864;25.986;2024-03-02T15:42:47;100785.09;;;12.25;83.64
58245;BME280;44550;43.864;25.986;2024-03-02T15:47:05;100801.69;;;12.36;82.25
58245;BME280;44550;43.864;25.986;2024-03-02T15:51:29;100812.19;;;12.36;81.72
58245;BME280;44550;43.864;25.986;2024-03-02T15:55:49;100802.56;;;12.26;80.91
58245;BME280;44550;43.864;25.986;2024-03-02T16:00:32;100812.19;;;12.33;80.70
58245;BME280;44550;43.864;25.986;2024-03-02T16:04:45;100815.66;;;12.41;79.57
58245;BME280;44550;43.864;25.986;2024-03-02T16:09:01;100799.06;;;12.22;79.97
58245;BME280;44550;43.864;25.986;2024-03-02T16:13:22;100828.81;;;12.35;80.55
58245;BME280;44550;43.864;25.986;2024-03-02T16:17:36;100836.66;;;12.32;81.38
58245;BME280;44550;43.864;25.986;2024-03-02T16:22:04;100792.03;;;12.02;81.47
58245;BME280;44550;43.864;25.986;2024-03-02T16:26:15;100842.78;;;12.33;82.20
58245;BME280;44550;43.864;25.986;2024-03-02T16:30:24;100830.50;;;12.16;83.05
58245;BME280;44550;43.864;25.986;2024-03-02T16:34:35;100850.63;;;12.25;83.63
58245;BME280;44550;43.864;25.986;2024-03-02T16:38:42;100854.13;;;12.22;84.58
58245;BME280;44550;43.864;25.986;2024-03-02T16:42:54;100869.84;;;12.22;85.47
58245;BME280;44550;43.864;25.986;2024-03-02T16:47:29;100842.69;;;12.01;86.26
58245;BME280;44550;43.864;25.986;2024-03-02T16:51:40;100870.63;;;11.86;87.46
58245;BME280;44550;43.864;25.986;2024-03-02T16:55:50;100870.53;;;11.77;87.92
58245;BME280;44550;43.864;25.986;2024-03-02T17:00:14;100855.66;;;11.64;88.13
58245;BME280;44550;43.864;25.986;2024-03-02T17:04:25;100867.00;;;11.63;88.58
58245;BME280;44550;43.864;25.986;2024-03-02T17:08:37;100876.66;;;11.73;88.31
58245;BME280;44550;43.864;25.986;2024-03-02T17:12:55;100875.75;;;11.71;88.32
58245;BME280;44550;43.864;25.986;2024-03-02T17:17:04;100887.13;;;11.74;88.48
58245;BME280;44550;43.864;25.986;2024-03-02T17:21:15;100891.47;;;11.68;88.58
58245;BME280;44550;43.864;25.986;2024-03-02T17:30:45;100904.34;;;11.31;91.80
58245;BME280;44550;43.864;25.986;2024-03-02T17:35:05;100906.88;;;11.17;92.88
58245;BME280;44550;43.864;25.986;2024-03-02T17:39:17;100903.34;;;11.11;93.19
58245;BME280;44550;43.864;25.986;2024-03-02T17:43:23;100905.00;;;11.02;93.81
58245;BME280;44550;43.864;25.986;2024-03-02T17:47:45;100852.47;;;10.70;93.14
58245;BME280;44550;43.864;25.986;2024-03-02T17:51:50;100894.44;;;10.89;92.29
58245;BME280;44550;43.864;25.986;2024-03-02T17:56:19;100884.72;;;10.71;92.53
58245;BME280;44550;43.864;25.986;2024-03-02T18:00:36;100917.06;;;10.82;92.09
58245;BME280;44550;43.864;25.986;2024-03-02T18:04:44;100918.78;;;10.78;91.98
58245;BME280;44550;43.864;25.986;2024-03-02T18:08:56;100916.84;;;10.59;92.22
58245;BME280;44550;43.864;25.986;2024-03-02T18:13:01;100919.47;;;10.59;91.85
58245;BME280;44550;43.864;25.986;2024-03-02T18:17:12;100852.78;;;10.16;91.69
58245;BME280;44550;43.864;25.986;2024-03-02T18:21:26;100909.81;;;10.52;91.11
58245;BME280;44550;43.864;25.986;2024-03-02T18:25:28;100933.44;;;10.60;91.33
58245;BME280;44550;43.864;25.986;2024-03-02T18:29:30;100907.19;;;10.52;90.72
58245;BME280;44550;43.864;25.986;2024-03-02T18:33:30;100939.34;;;10.40;90.95
58245;BME280;44550;43.864;25.986;2024-03-02T18:37:36;100933.84;;;10.22;91.50
58245;BME280;44550;43.864;25.986;2024-03-02T18:41:37;100938.22;;;10.23;91.59
58245;BME280;44550;43.864;25.986;2024-03-02T18:45:42;100938.25;;;10.24;91.91
58245;BME280;44550;43.864;25.986;2024-03-02T18:49:49;100893.41;;;9.89;91.44
58245;BME280;44550;43.864;25.986;2024-03-02T18:54:09;100938.06;;;10.07;92.19
58245;BME280;44550;43.864;25.986;2024-03-02T18:58:11;100942.38;;;10.04;92.50
58245;BME280;44550;43.864;25.986;2024-03-02T19:02:11;100931.72;;;9.87;92.47
58245;BME280;44550;43.864;25.986;2024-03-02T19:06:20;100950.09;;;9.96;92.76
58245;BME280;44550;43.864;25.986;2024-03-02T19:10:41;100927.38;;;9.87;92.81
58245;BME280;44550;43.864;25.986;2024-03-02T19:14:59;100948.50;;;10.09;92.37
58245;BME280;44550;43.864;25.986;2024-03-02T19:19:02;100922.09;;;9.86;92.34
58245;BME280;44550;43.864;25.986;2024-03-02T19:23:16;100941.31;;;9.89;92.83
58245;BME280;44550;43.864;25.986;2024-03-02T19:27:32;100945.81;;;10.01;92.48
58245;BME280;44550;43.864;25.986;2024-03-02T19:31:34;100945.91;;;10.07;92.20
58245;BME280;44550;43.864;25.986;2024-03-02T19:35:35;100912.59;;;9.91;91.53
58245;BME280;44550;43.864;25.986;2024-03-02T19:39:35;100942.38;;;10.05;91.53
58245;BME280;44550;43.864;25.986;2024-03-02T19:43:41;100951.00;;;9.98;91.73
58245;BME280;44550;43.864;25.986;2024-03-02T19:47:43;100952.78;;;10.01;92.00
58245;BME280;44550;43.864;25.986;2024-03-02T19:51:47;100925.59;;;9.85;91.55
58245;BME280;44550;43.864;25.986;2024-03-02T19:55:51;100946.47;;;9.86;92.14
58245;BME280;44550;43.864;25.986;2024-03-02T19:59:57;100954.31;;;9.83;92.39
58245;BME280;44550;43.864;25.986;2024-03-02T20:04:14;100963.03;;;9.85;92.30
58245;BME280;44550;43.864;25.986;2024-03-02T20:08:20;100931.41;;;9.65;92.57
58245;BME280;44550;43.864;25.986;2024-03-02T20:12:24;100901.22;;;9.21;93.68
58245;BME280;44550;43.864;25.986;2024-03-02T20:16:28;100940.47;;;9.28;95.04
58245;BME280;44550;43.864;25.986;2024-03-02T20:20:31;100956.06;;;9.25;95.77
58245;BME280;44550;43.864;25.986;2024-03-02T20:24:31;100968.94;;;9.14;96.87
58245;BME280;44550;43.864;25.986;2024-03-02T20:28:38;100927.00;;;9.04;96.57
58245;BME280;44550;43.864;25.986;2024-03-02T20:32:59;100936.63;;;9.05;96.64
58245;BME280;44550;43.864;25.986;2024-03-02T20:37:10;100959.22;;;9.06;97.48
58245;BME280;44550;43.864;25.986;2024-03-02T20:41:22;100962.91;;;9.18;97.53
58245;BME280;44550;43.864;25.986;2024-03-02T20:45:25;100965.69;;;9.28;96.62
58245;BME280;44550;43.864;25.986;2024-03-02T20:49:28;100968.28;;;9.29;96.69
58245;BME280;44550;43.864;25.986;2024-03-02T20:53:33;100965.69;;;9.29;96.74
58245;BME280;44550;43.864;25.986;2024-03-02T20:57:38;100942.00;;;9.14;96.63
58245;BME280;44550;43.864;25.986;2024-03-02T21:01:47;100968.06;;;9.14;97.40
58245;BME280;44550;43.864;25.986;2024-03-02T21:06:05;100970.53;;;9.06;98.25
58245;BME280;44550;43.864;25.986;2024-03-02T21:10:06;100967.88;;;9.03;98.61
58245;BME280;44550;43.864;25.986;2024-03-02T21:14:26;100879.69;;;8.31;99.60
58245;BME280;44550;43.864;25.986;2024-03-02T21:18:36;100964.63;;;8.66;100.00
58245;BME280;44550;43.864;25.986;2024-03-02T21:22:40;100966.97;;;8.53;100.00
58245;BME280;44550;43.864;25.986;2024-03-02T21:26:52;100967.78;;;8.50;100.00
58245;BME280;44550;43.864;25.986;2024-03-02T21:31:41;100966.06;;;8.49;100.00
58245;BME280;44550;43.864;25.986;2024-03-02T21:35:58;100962.22;;;8.33;100.00
58245;BME280;44550;43.864;25.986;2024-03-02T21:40:11;100936.09;;;8.29;100.00
58245;BME280;44550;43.864;25.986;2024-03-02T21:44:38;100966.00;;;8.46;100.00
58245;BME280;44550;43.864;25.986;2024-03-02T21:48:49;100944.16;;;8.41;100.00
58245;BME280;44550;43.864;25.986;2024-03-02T21:52:51;100965.19;;;8.50;100.00
58245;BME280;44550;43.864;25.986;2024-03-02T21:57:02;100904.25;;;7.98;100.00
58245;BME280;44550;43.864;25.986;2024-03-02T22:01:10;100971.56;;;8.22;100.00
58245;BME280;44550;43.864;25.986;2024-03-02T22:05:20;100927.44;;;7.86;100.00
58245;BME280;44550;43.864;25.986;2024-03-02T22:14:06;100919.28;;;7.69;100.00
58245;BME280;44550;43.864;25.986;2024-03-02T22:18:13;100973.66;;;7.97;100.00
58245;BME280;44550;43.864;25.986;2024-03-02T22:22:15;100925.28;;;7.68;100.00
58245;BME280;44550;43.864;25.986;2024-03-02T22:26:15;100989.88;;;7.84;100.00
58245;BME280;44550;43.864;25.986;2024-03-02T22:30:32;100992.06;;;7.66;100.00
58245;BME280;44550;43.864;25.986;2024-03-02T22:34:39;100986.47;;;7.49;100.00
58245;BME280;44550;43.864;25.986;2024-03-02T22:38:48;100904.47;;;6.91;100.00
58245;BME280;44550;43.864;25.986;2024-03-02T22:42:51;100991.25;;;7.30;100.00
58245;BME280;44550;43.864;25.986;2024-03-02T22:47:00;100991.16;;;7.27;100.00
58245;BME280;44550;43.864;25.986;2024-03-02T22:51:10;100996.34;;;7.26;100.00
58245;BME280;44550;43.864;25.986;2024-03-02T22:55:11;100995.41;;;7.24;100.00
58245;BME280;44550;43.864;25.986;2024-03-02T22:59:12;100939.94;;;6.89;100.00
58245;BME280;44550;43.864;25.986;2024-03-02T23:03:19;100969.06;;;7.09;100.00
58245;BME280;44550;43.864;25.986;2024-03-02T23:07:20;100997.28;;;7.29;100.00
58245;BME280;44550;43.864;25.986;2024-03-02T23:11:35;100998.88;;;7.24;100.00
58245;BME280;44550;43.864;25.986;2024-03-02T23:15:51;100996.28;;;7.24;100.00
58245;BME280;44550;43.864;25.986;2024-03-02T23:24:29;101000.25;;;7.09;100.00
58245;BME280;44550;43.864;25.986;2024-03-02T23:28:38;100997.69;;;7.10;100.00
58245;BME280;44550;43.864;25.986;2024-03-02T23:37:06;100999.16;;;6.99;100.00
58245;BME280;44550;43.864;25.986;2024-03-02T23:41:09;101007.16;;;6.75;100.00
58245;BME280;44550;43.864;25.986;2024-03-02T23:45:20;100998.81;;;6.55;100.00
58245;BME280;44550;43.864;25.986;2024-03-02T23:49:22;101011.31;;;6.37;100.00
58245;BME280;44550;43.864;25.986;2024-03-02T23:53:44;100952.63;;;5.83;100.00
58245;BME280;44550;43.864;25.986;2024-03-02T23:57:53;101017.16;;;5.99;100.00
